This is the latest recevied weather packets stored in our database for station/object W0WC. If no packets are shown the sender has not sent any weather packets the latest 10 day(s).
| Time | Temp. | Humidity | Pressure | Rain* | Wind** | Luminosity | Snow |
|---|---|---|---|---|---|---|---|
| 1777640053 | 11.11° C | 73% | 1019.8 hPa | 0 mm | - | 121 W/m² | - |
| 1777639750 | 10.56° C | 76% | 1019.9 hPa | 0 mm | - | 104 W/m² | - |
| 1777639448 | 10° C | 78% | 1019.8 hPa | 0 mm | - | 88 W/m² | - |
| 1777639143 | 9.44° C | 79% | 1019.6 hPa | 0 mm | - | 68 W/m² | - |
| 1777638840 | 9.44° C | 81% | 1019.6 hPa | 0 mm | - | 55 W/m² | - |
| 1777638535 | 9.44° C | 83% | 1019.4 hPa | 0 mm | - | 62 W/m² | - |
| 1777638232 | 8.89° C | 86% | 1019.3 hPa | 0 mm | - | 54 W/m² | - |
| 1777637928 | 8.89° C | 88% | 1019.5 hPa | 0 mm | - | 49 W/m² | - |
| 1777637625 | 8.33° C | 89% | 1019.6 hPa | 0 mm | - | 43 W/m² | - |
| 1777637322 | 7.78° C | 90% | 1019.7 hPa | 0 mm | - | 37 W/m² | - |
| 1777637019 | 7.78° C | 91% | 1019.5 hPa | 0 mm | - | 28 W/m² | - |
| 1777636714 | 7.78° C | 92% | 1019.6 hPa | 0 mm | - | 23 W/m² | - |
| 1777636411 | 7.22° C | 92% | 1019.4 hPa | 0 mm | - | 19 W/m² | - |
| 1777636107 | 7.22° C | 91% | 1019.2 hPa | 0 mm | - | 17 W/m² | - |
| 1777635802 | 7.22° C | 91% | 1019.4 hPa | 0 mm | - | 14 W/m² | - |
| 1777635499 | 7.22° C | 91% | 1019.3 hPa | 0 mm | - | 11 W/m² | - |
| 1777635195 | 7.22° C | 90% | 1019.3 hPa | 0 mm | - | 7 W/m² | - |
| 1777634892 | 7.78° C | 90% | 1019.3 hPa | 0 mm | - | 4 W/m² | - |
| 1777634589 | 7.78° C | 90% | 1019.2 hPa | 0 mm | - | 3 W/m² | - |
| 1777634286 | 7.78° C | 89% | 1019.1 hPa | 0 mm | - | 1 W/m² | - |
| 1777633982 | 7.78° C | 89% | 1019.3 hPa | 0 mm | - | 1 W/m² | - |
| 1777633679 | 7.78° C | 88% | 1019.1 hPa | 0 mm | - | 0 W/m² | - |
| 1777633378 | 8.33° C | 87% | 1019.1 hPa | 0 mm | - | 0 W/m² | - |
| 1777633075 | 8.33° C | 87% | 1019 hPa | 0 mm | - | 0 W/m² | - |
| 1777632771 | 8.33° C | 87% | 1019 hPa | 0 mm | - | 0 W/m² | - |
* Rain latest hour (hover to see other rain measurements)
** Current wind speed in m/s (hover to see current wind gust speed)